This is the latest recevied weather packets stored in our database for station/object DC8RAI-12. If no packets are shown the sender has not sent any weather packets the latest 10 day(s).
| Time | Temp. | Humidity | Pressure | Rain* | Wind** | Luminosity | Snow |
|---|---|---|---|---|---|---|---|
| 1777863598 | 12.22° C | 61% | 1015.9 hPa | - | - | - | - |
| 1777862698 | 12.78° C | 59% | 1016 hPa | - | - | - | - |
| 1777861798 | 13.89° C | 55% | 1016.1 hPa | - | - | - | - |
| 1777860897 | 14.44° C | 55% | 1016.1 hPa | - | - | - | - |
| 1777859997 | 14.44° C | 54% | 1016.1 hPa | - | - | - | - |
| 1777859097 | 15.56° C | 52% | 1016 hPa | - | - | - | - |
| 1777858197 | 15.56° C | 52% | 1015.8 hPa | - | - | - | - |
| 1777857296 | 15.56° C | 53% | 1015.7 hPa | - | - | - | - |
| 1777856396 | 16.11° C | 52% | 1015.5 hPa | - | - | - | - |
| 1777855499 | 16.11° C | 52% | 1015.4 hPa | - | - | - | - |
| 1777854599 | 16.11° C | 53% | 1015.3 hPa | - | - | - | - |
| 1777853699 | 16.11° C | 53% | 1015.2 hPa | - | - | - | - |
| 1777852799 | 15.56° C | 52% | 1015 hPa | - | - | - | - |
| 1777851899 | 15.56° C | 53% | 1014.8 hPa | - | - | - | - |
| 1777850999 | 15° C | 54% | 1014.7 hPa | - | - | - | - |
| 1777850099 | 15° C | 57% | 1014.7 hPa | - | - | - | - |
| 1777849199 | 15° C | 56% | 1014.5 hPa | - | - | - | - |
| 1777848299 | 15° C | 57% | 1014.4 hPa | - | - | - | - |
| 1777847398 | 15° C | 56% | 1014.2 hPa | - | - | - | - |
| 1777846498 | 14.44° C | 59% | 1014 hPa | - | - | - | - |
| 1777845598 | 15° C | 57% | 1013.7 hPa | - | - | - | - |
| 1777844698 | 15° C | 59% | 1013.6 hPa | - | - | - | - |
| 1777843798 | 15.56° C | 54% | 1013.4 hPa | - | - | - | - |
| 1777842898 | 16.11° C | 55% | 1013.3 hPa | - | - | - | - |
| 1777841998 | 16.11° C | 53% | 1013.2 hPa | - | - | - | - |
* Rain since midnight (hover to see other rain measurements)
** Current wind speed in m/s (hover to see current wind gust speed)